LFPM 030430Z AUTO 30005KT 4200 -RA BR BKN004 BKN009 BKN017 05/05 Q0998

Les avions qui composent notre flotte

Piper PA28 Archer II

Idéal pour les voyages, équipé RNAV

F-GHJT


F-GHJT Planche